Time;durP1;ratioP1;P1;durP2;ratioP2;P2;SDS_P1;SDS_P2;PMS_P1;PMS_P2;Temp;Humidity;BMP_temperature;BMP_pressure;BME280_temperature;BME280_humidity;BME280_pressure;Samples;Min_cycle;Max_cycle;Signal;HPM_P1;HPM_P2
2023/10/24 00:02:13;;;;;;;14.70;13.68;;;11.50;99.90;;;;;;4991318;28;20073;-74
2023/10/24 00:04:40;;;;;;;15.02;13.90;;;11.50;99.90;;;;;;4997845;28;20056;-75
2023/10/24 00:07:07;;;;;;;14.65;13.45;;;11.60;99.90;;;;;;5005809;28;20057;-73
2023/10/24 00:09:34;;;;;;;15.23;14.15;;;11.50;99.90;;;;;;5031706;28;20049;-75
2023/10/24 00:12:01;;;;;;;14.55;13.48;;;11.60;99.90;;;;;;4977619;28;20505;-76
2023/10/24 00:14:27;;;;;;;15.10;13.93;;;11.50;99.90;;;;;;4990545;28;20713;-75
2023/10/24 00:16:54;;;;;;;14.65;13.60;;;11.50;99.90;;;;;;4979880;28;20747;-75
2023/10/24 00:19:21;;;;;;;15.50;14.07;;;11.50;99.90;;;;;;4988792;28;20056;-76
2023/10/24 00:21:48;;;;;;;15.45;14.30;;;11.60;99.90;;;;;;4995131;28;20088;-75
2023/10/24 00:24:15;;;;;;;15.32;14.23;;;11.60;99.90;;;;;;4992187;28;20057;-74
2023/10/24 00:26:42;;;;;;;14.85;13.82;;;11.70;99.90;;;;;;4998437;28;20511;-76
2023/10/24 00:29:08;;;;;;;18.23;14.90;;;11.70;99.90;;;;;;4996329;28;20038;-74
2023/10/24 00:31:35;;;;;;;15.95;14.65;;;11.60;99.90;;;;;;4992322;28;20046;-75
2023/10/24 00:34:03;;;;;;;17.38;15.77;;;11.60;99.90;;;;;;4997651;28;20037;-75
2023/10/24 00:36:30;;;;;;;15.65;14.25;;;11.60;99.90;;;;;;4977542;28;20048;-75
2023/10/24 00:38:57;;;;;;;16.42;14.98;;;11.60;99.90;;;;;;4983631;28;20052;-76
2023/10/24 00:41:24;;;;;;;18.40;16.65;;;11.60;99.90;;;;;;4974417;28;20141;-75
2023/10/24 00:43:50;;;;;;;16.67;15.25;;;11.60;99.90;;;;;;4993058;28;20137;-75
2023/10/24 00:46:17;;;;;;;17.10;15.32;;;11.60;99.90;;;;;;5001400;28;20502;-78
2023/10/24 00:48:44;;;;;;;16.92;15.32;;;11.60;99.90;;;;;;4999656;28;20038;-75
2023/10/24 00:51:11;;;;;;;20.52;17.60;;;11.60;99.90;;;;;;4995203;28;20088;-74
2023/10/24 00:53:39;;;;;;;16.70;15.20;;;11.60;99.90;;;;;;4994564;28;20041;-76
2023/10/24 00:56:09;;;;;;;17.48;15.63;;;11.60;99.90;;;;;;4978226;28;20129;-76
2023/10/24 00:58:37;;;;;;;17.25;15.50;;;11.60;99.90;;;;;;4992048;28;20050;-75
2023/10/24 01:01:11;;;;;;;13.70;12.70;;;11.60;99.90;;;;;;5002323;28;20150;-76
2023/10/24 01:03:39;;;;;;;17.67;15.10;;;11.60;99.90;;;;;;5002963;28;20046;-76
2023/10/24 01:06:06;;;;;;;16.55;14.73;;;11.60;99.90;;;;;;4999483;28;20060;-78
2023/10/24 01:08:33;;;;;;;21.20;16.58;;;11.70;99.90;;;;;;4991428;28;20046;-76
2023/10/24 01:11:00;;;;;;;16.98;15.35;;;11.70;99.90;;;;;;4987307;28;20042;-75
2023/10/24 01:13:28;;;;;;;17.63;15.77;;;11.70;99.90;;;;;;5008811;28;20046;-75
2023/10/24 01:15:55;;;;;;;16.80;15.35;;;11.70;99.90;;;;;;5008178;28;20115;-75
2023/10/24 01:18:22;;;;;;;14.68;13.50;;;11.70;99.90;;;;;;5001846;28;20700;-76
2023/10/24 01:20:49;;;;;;;14.55;13.27;;;11.60;99.90;;;;;;4997225;28;20045;-75
2023/10/24 01:23:17;;;;;;;15.52;14.02;;;11.60;99.90;;;;;;4995963;28;20195;-74
2023/10/24 01:25:45;;;;;;;15.75;13.93;;;11.60;99.90;;;;;;4989394;28;20042;-76
2023/10/24 01:28:12;;;;;;;14.00;13.05;;;11.60;99.90;;;;;;4995651;28;20073;-75
2023/10/24 01:30:39;;;;;;;15.80;14.48;;;11.70;99.90;;;;;;4992730;28;20402;-75
2023/10/24 01:33:06;;;;;;;16.02;14.15;;;11.60;99.90;;;;;;5003576;28;20038;-75
2023/10/24 01:35:33;;;;;;;15.65;14.07;;;11.60;99.90;;;;;;4977277;28;20048;-75
2023/10/24 01:38:00;;;;;;;14.20;13.13;;;11.50;99.90;;;;;;4997268;28;20038;-77
2023/10/24 01:40:26;;;;;;;14.85;13.52;;;11.50;99.90;;;;;;5003378;28;20691;-77
2023/10/24 01:42:53;;;;;;;14.68;13.35;;;11.50;99.90;;;;;;4993120;28;20551;-76
2023/10/24 01:45:20;;;;;;;16.63;14.05;;;11.50;99.90;;;;;;4975518;28;20045;-75
2023/10/24 01:47:47;;;;;;;14.52;13.48;;;11.50;99.90;;;;;;5000566;28;20553;-74
2023/10/24 01:50:14;;;;;;;13.90;12.90;;;11.50;99.90;;;;;;4994670;28;20132;-75
2023/10/24 01:52:43;;;;;;;13.98;12.90;;;11.50;99.90;;;;;;5000655;28;20056;-76
2023/10/24 01:55:11;;;;;;;14.13;13.02;;;11.50;99.90;;;;;;4987658;28;20042;-76
2023/10/24 01:57:38;;;;;;;14.07;12.90;;;11.60;99.90;;;;;;4977390;28;20042;-74
2023/10/24 02:00:05;;;;;;;13.10;12.25;;;11.50;99.90;;;;;;4993086;28;20037;-75
2023/10/24 02:02:38;;;;;;;13.50;12.48;;;11.50;99.90;;;;;;5000676;28;20085;-75
2023/10/24 02:05:05;;;;;;;13.90;12.60;;;11.50;99.90;;;;;;4974902;28;20045;-76
2023/10/24 02:07:32;;;;;;;13.73;12.75;;;11.50;99.90;;;;;;4988259;28;20054;-76
2023/10/24 02:09:58;;;;;;;13.10;12.25;;;11.40;99.90;;;;;;5001422;28;20033;-76
2023/10/24 02:12:25;;;;;;;12.80;12.00;;;11.40;99.90;;;;;;4988486;28;20742;-76
2023/10/24 02:14:53;;;;;;;13.73;12.45;;;11.40;99.90;;;;;;5001900;28;20088;-76
2023/10/24 02:17:19;;;;;;;13.57;12.32;;;11.40;99.90;;;;;;4997353;28;20053;-76
2023/10/24 02:19:46;;;;;;;14.15;12.80;;;11.40;99.90;;;;;;4995958;28;20054;-75
2023/10/24 02:22:13;;;;;;;13.73;12.60;;;11.40;99.90;;;;;;5002851;28;20045;-75
2023/10/24 02:24:40;;;;;;;13.73;12.52;;;11.40;99.90;;;;;;4985853;28;21577;-75
2023/10/24 02:27:07;;;;;;;14.05;12.85;;;11.40;99.90;;;;;;4995997;28;20468;-76
2023/10/24 02:29:34;;;;;;;13.82;12.93;;;11.40;99.90;;;;;;4989449;28;20052;-75
2023/10/24 02:32:02;;;;;;;14.63;13.63;;;11.40;99.90;;;;;;4996210;28;20106;-77
2023/10/24 02:34:29;;;;;;;14.65;13.48;;;11.50;99.90;;;;;;4992955;28;20128;-76
2023/10/24 02:36:56;;;;;;;17.75;13.60;;;11.50;99.90;;;;;;5002987;28;20072;-76
2023/10/24 02:39:23;;;;;;;15.18;13.23;;;11.30;99.90;;;;;;4983530;28;20058;-76
2023/10/24 02:41:49;;;;;;;16.17;13.25;;;11.30;99.90;;;;;;4998223;28;20045;-76
2023/10/24 02:44:16;;;;;;;14.05;13.00;;;11.10;99.90;;;;;;4976946;28;20436;-76
2023/10/24 02:46:43;;;;;;;12.63;11.57;;;11.10;99.90;;;;;;4985262;28;20042;-76
2023/10/24 02:49:10;;;;;;;12.43;11.57;;;11.20;99.90;;;;;;4998675;28;20061;-75
2023/10/24 02:51:37;;;;;;;12.45;11.35;;;11.10;99.90;;;;;;4999751;28;20307;-76
2023/10/24 02:54:04;;;;;;;13.90;12.50;;;11.20;99.90;;;;;;4992137;28;20034;-76
2023/10/24 02:56:31;;;;;;;12.68;11.85;;;11.20;99.90;;;;;;4970784;28;20046;-76
2023/10/24 02:58:57;;;;;;;12.85;12.00;;;11.20;99.90;;;;;;5000569;28;20049;-76
2023/10/24 03:01:25;;;;;;;12.93;12.02;;;11.30;99.90;;;;;;4992265;28;20140;-76
2023/10/24 03:03:52;;;;;;;13.65;12.77;;;11.30;99.90;;;;;;5007874;28;20057;-75
2023/10/24 03:06:19;;;;;;;18.35;13.75;;;11.40;99.90;;;;;;4995704;28;20083;-76
2023/10/24 03:08:48;;;;;;;15.13;13.70;;;11.50;99.90;;;;;;4999798;28;20561;-76
2023/10/24 03:11:25;;;;;;;15.30;14.30;;;11.60;99.90;;;;;;4992690;28;20627;-76
2023/10/24 03:13:53;;;;;;;15.05;13.88;;;11.60;99.90;;;;;;4997911;28;20495;-76
2023/10/24 03:16:22;;;;;;;15.45;14.13;;;11.60;99.90;;;;;;5002924;28;20041;-75
2023/10/24 03:18:50;;;;;;;15.30;13.98;;;11.60;99.90;;;;;;5004392;28;20061;-75
2023/10/24 03:21:19;;;;;;;15.13;14.20;;;11.70;99.90;;;;;;4990476;28;20039;-75
2023/10/24 03:23:46;;;;;;;16.02;14.73;;;11.60;99.90;;;;;;4991748;28;20111;-76
2023/10/24 03:26:13;;;;;;;16.02;14.68;;;11.70;99.90;;;;;;5003111;28;20044;-76
2023/10/24 03:28:40;;;;;;;16.38;14.70;;;11.70;99.90;;;;;;5001748;28;20049;-74
2023/10/24 03:31:11;;;;;;;16.75;15.27;;;11.60;99.90;;;;;;5001751;28;20100;-76
2023/10/24 03:33:38;;;;;;;15.65;14.15;;;11.50;99.90;;;;;;4988379;28;21313;-75
2023/10/24 03:36:11;;;;;;;15.43;14.23;;;11.40;99.90;;;;;;4992372;28;20533;-75
2023/10/24 03:38:38;;;;;;;15.48;13.63;;;11.40;99.90;;;;;;5003342;28;20080;-75
2023/10/24 03:41:06;;;;;;;16.30;14.90;;;11.40;99.90;;;;;;4989844;28;20050;-76
2023/10/24 03:43:34;;;;;;;15.38;13.82;;;11.30;99.90;;;;;;4990427;28;20152;-76
2023/10/24 03:46:06;;;;;;;15.13;12.45;;;11.20;99.90;;;;;;5002627;28;20079;-76
2023/10/24 03:48:33;;;;;;;14.60;13.05;;;11.20;99.90;;;;;;4991259;28;20065;-76
2023/10/24 03:51:00;;;;;;;14.63;13.27;;;11.20;99.90;;;;;;5006548;28;20037;-76
2023/10/24 03:53:27;;;;;;;14.07;12.63;;;11.20;99.90;;;;;;5004406;28;20107;-75
2023/10/24 03:55:56;;;;;;;13.93;12.70;;;11.20;99.90;;;;;;4997476;28;20665;-75
2023/10/24 03:58:22;;;;;;;15.05;13.55;;;11.20;99.90;;;;;;5008480;28;20128;-75
2023/10/24 04:00:49;;;;;;;14.73;13.23;;;11.10;99.90;;;;;;5025498;28;20152;-75
2023/10/24 04:03:16;;;;;;;14.80;13.57;;;11.20;99.90;;;;;;5024500;28;20050;-74
2023/10/24 04:05:46;;;;;;;15.68;14.20;;;11.20;99.90;;;;;;5018522;28;20092;-78
2023/10/24 04:08:12;;;;;;;15.65;14.02;;;11.20;99.90;;;;;;5009342;28;20034;-76
2023/10/24 04:10:39;;;;;;;17.92;14.48;;;11.10;99.90;;;;;;4992472;28;20081;-76
2023/10/24 04:13:07;;;;;;;14.50;13.20;;;11.20;99.90;;;;;;5003366;28;20077;-76
2023/10/24 04:15:33;;;;;;;15.90;14.27;;;11.20;99.90;;;;;;4993352;28;20045;-77
2023/10/24 04:18:00;;;;;;;15.70;14.15;;;11.20;99.90;;;;;;5001591;28;20443;-76
2023/10/24 04:20:27;;;;;;;16.35;14.93;;;11.20;99.90;;;;;;4998331;28;20133;-75
2023/10/24 04:22:54;;;;;;;16.95;15.25;;;11.20;99.90;;;;;;5003140;28;20061;-76
2023/10/24 04:25:21;;;;;;;16.45;14.95;;;11.20;99.90;;;;;;4994830;28;20551;-75
2023/10/24 04:27:48;;;;;;;16.98;15.48;;;11.30;99.90;;;;;;4999199;28;20064;-76
2023/10/24 04:30:14;;;;;;;17.05;15.65;;;11.30;99.90;;;;;;4996227;28;20064;-76
2023/10/24 04:32:41;;;;;;;17.08;15.43;;;11.30;99.90;;;;;;4996269;28;20591;-76
2023/10/24 04:35:08;;;;;;;16.92;15.43;;;11.30;99.90;;;;;;4999609;28;20035;-76
2023/10/24 04:37:34;;;;;;;17.10;15.45;;;11.30;99.90;;;;;;4993713;28;20033;-76
2023/10/24 04:40:02;;;;;;;17.05;15.35;;;11.30;99.90;;;;;;4995292;28;20049;-76
2023/10/24 04:42:28;;;;;;;18.58;15.07;;;11.20;99.90;;;;;;4990343;28;20046;-76
2023/10/24 04:44:55;;;;;;;18.90;15.90;;;11.20;99.90;;;;;;4993730;28;20057;-77
2023/10/24 04:47:22;;;;;;;18.10;16.40;;;11.30;99.90;;;;;;5002946;28;20041;-76
2023/10/24 04:49:49;;;;;;;18.42;16.80;;;11.30;99.90;;;;;;4992926;28;20061;-77
2023/10/24 04:52:16;;;;;;;17.83;16.33;;;11.30;99.90;;;;;;5000760;28;20141;-76
2023/10/24 04:54:42;;;;;;;18.33;16.45;;;11.30;99.90;;;;;;4996423;28;20151;-77
2023/10/24 04:57:09;;;;;;;18.52;16.67;;;11.30;99.90;;;;;;4992332;28;20054;-77
2023/10/24 04:59:37;;;;;;;17.95;16.50;;;11.30;99.90;;;;;;4986390;28;20050;-76
2023/10/24 05:02:03;;;;;;;19.38;17.50;;;11.40;99.90;;;;;;4998386;28;20037;-75
2023/10/24 05:04:31;;;;;;;20.92;18.83;;;11.30;99.90;;;;;;4995562;28;20069;-75
2023/10/24 05:06:58;;;;;;;21.48;19.30;;;11.40;99.90;;;;;;4993088;28;20049;-77
2023/10/24 05:09:26;;;;;;;20.60;18.52;;;11.40;99.90;;;;;;5000687;28;20237;-76
2023/10/24 05:11:52;;;;;;;21.30;19.40;;;11.40;99.90;;;;;;4995267;28;20057;-77
2023/10/24 05:14:19;;;;;;;21.38;19.20;;;11.30;99.90;;;;;;5005493;28;20452;-76
2023/10/24 05:16:46;;;;;;;22.80;20.60;;;11.40;99.90;;;;;;4996906;28;20042;-76
2023/10/24 05:19:13;;;;;;;21.67;19.80;;;11.40;99.90;;;;;;5003708;28;20037;-76
2023/10/24 05:21:40;;;;;;;22.45;20.33;;;11.40;99.90;;;;;;5003257;28;20042;-76
2023/10/24 05:24:07;;;;;;;23.33;21.13;;;11.40;99.90;;;;;;4991509;28;20053;-77
2023/10/24 05:26:34;;;;;;;22.40;20.50;;;11.40;99.90;;;;;;4995627;28;20050;-77
2023/10/24 05:29:01;;;;;;;23.98;21.98;;;11.30;99.90;;;;;;5002713;28;20053;-76
2023/10/24 05:31:27;;;;;;;23.77;21.80;;;11.40;99.90;;;;;;4998862;28;20080;-75
2023/10/24 05:33:54;;;;;;;25.27;23.15;;;11.30;99.90;;;;;;4993879;28;20053;-76
2023/10/24 05:36:21;;;;;;;25.02;22.92;;;11.20;99.90;;;;;;4991569;28;20065;-75
2023/10/24 05:38:48;;;;;;;26.42;23.70;;;11.20;99.90;;;;;;4991007;28;20081;-75
2023/10/24 05:41:15;;;;;;;28.33;24.23;;;11.20;99.90;;;;;;4992499;28;20041;-76
2023/10/24 05:43:42;;;;;;;25.15;22.67;;;11.20;99.90;;;;;;4995967;28;20539;-76
2023/10/24 05:46:08;;;;;;;26.88;23.48;;;11.10;99.90;;;;;;4999143;28;20042;-76
2023/10/24 05:48:38;;;;;;;27.17;22.98;;;11.20;99.90;;;;;;4996720;28;20447;-75
2023/10/24 05:51:07;;;;;;;25.80;23.23;;;11.20;99.90;;;;;;4995357;28;20046;-76
2023/10/24 05:53:34;;;;;;;29.13;23.35;;;11.20;99.90;;;;;;5005934;28;20155;-76
2023/10/24 05:56:04;;;;;;;24.48;22.17;;;11.20;99.90;;;;;;5000081;28;20041;-77
2023/10/24 05:58:31;;;;;;;23.67;21.42;;;11.30;99.90;;;;;;4994040;28;20050;-76
2023/10/24 06:00:59;;;;;;;23.17;21.00;;;11.30;99.90;;;;;;4999171;28;20686;-76
2023/10/24 06:03:26;;;;;;;22.98;20.42;;;11.30;99.90;;;;;;5002071;28;20054;-75
2023/10/24 06:05:53;;;;;;;21.45;19.33;;;11.30;99.90;;;;;;4995109;28;20475;-77
2023/10/24 06:08:20;;;;;;;22.25;20.00;;;11.30;99.90;;;;;;5002645;28;20059;-76
2023/10/24 06:11:03;;;;;;;22.98;20.60;;;11.30;99.90;;;;;;4982941;28;20062;-76
2023/10/24 06:13:31;;;;;;;21.25;18.88;;;11.30;99.90;;;;;;4990056;28;20088;-76
2023/10/24 06:16:09;;;;;;;22.92;20.42;;;11.30;99.90;;;;;;5001328;28;20072;-76
2023/10/24 06:18:37;;;;;;;22.45;20.35;;;11.40;99.90;;;;;;5000701;28;20342;-76
2023/10/24 06:21:08;;;;;;;21.90;19.83;;;11.40;99.90;;;;;;5005919;28;20046;-76
2023/10/24 06:23:35;;;;;;;21.90;19.80;;;11.40;99.90;;;;;;4990088;28;20057;-76
2023/10/24 06:26:02;;;;;;;21.98;19.75;;;11.40;99.90;;;;;;4990645;28;20064;-76
2023/10/24 06:28:29;;;;;;;22.77;20.48;;;11.40;99.90;;;;;;4993077;28;20140;-75
2023/10/24 06:31:01;;;;;;;23.88;19.52;;;11.50;99.90;;;;;;4986586;28;20923;-75
2023/10/24 06:33:30;;;;;;;22.30;20.15;;;11.50;99.90;;;;;;5000034;28;20136;-76
2023/10/24 06:35:57;;;;;;;24.98;19.85;;;11.50;99.90;;;;;;4997578;28;20057;-76
2023/10/24 06:38:24;;;;;;;22.58;20.23;;;11.50;99.90;;;;;;5001445;28;20033;-76
2023/10/24 06:40:51;;;;;;;25.27;21.15;;;11.50;99.90;;;;;;4994989;28;20125;-76
2023/10/24 06:43:18;;;;;;;22.55;20.27;;;11.60;99.90;;;;;;4997977;28;20042;-75
2023/10/24 06:45:45;;;;;;;22.27;19.75;;;11.60;99.90;;;;;;4997379;28;20103;-76
2023/10/24 06:48:14;;;;;;;21.50;19.60;;;11.60;99.90;;;;;;4998414;28;20049;-76
2023/10/24 06:50:41;;;;;;;29.10;21.40;;;11.70;99.90;;;;;;4991381;28;20069;-76
2023/10/24 06:53:11;;;;;;;23.33;20.85;;;11.70;99.90;;;;;;5002463;28;20064;-76
2023/10/24 06:55:38;;;;;;;23.17;20.85;;;11.70;99.90;;;;;;4988820;28;20354;-76
2023/10/24 06:58:05;;;;;;;22.85;20.83;;;11.70;99.90;;;;;;4996202;28;20120;-75
2023/10/24 07:00:32;;;;;;;25.52;22.50;;;11.70;99.90;;;;;;5002341;28;20049;-75
2023/10/24 07:02:59;;;;;;;24.35;21.98;;;11.70;99.90;;;;;;4995987;28;20136;-74
2023/10/24 07:05:28;;;;;;;24.75;22.30;;;11.80;99.90;;;;;;5023756;28;20061;-75
2023/10/24 07:07:55;;;;;;;24.17;21.85;;;11.80;99.90;;;;;;4994622;28;20056;-76
2023/10/24 07:10:22;;;;;;;24.52;21.95;;;11.80;99.90;;;;;;4999435;28;20422;-75
2023/10/24 07:12:49;;;;;;;24.85;22.35;;;11.70;99.90;;;;;;4986265;28;20863;-75
2023/10/24 07:15:16;;;;;;;23.70;21.38;;;11.70;99.90;;;;;;4996493;28;20042;-74
2023/10/24 07:17:43;;;;;;;23.98;21.70;;;11.70;99.90;;;;;;4999362;28;20045;-76
2023/10/24 07:20:10;;;;;;;24.58;21.40;;;11.60;99.90;;;;;;5004764;28;20033;-75
2023/10/24 07:22:38;;;;;;;23.25;21.27;;;11.70;99.90;;;;;;4996072;28;20049;-73
2023/10/24 07:25:05;;;;;;;23.15;21.00;;;11.60;99.90;;;;;;4994687;28;20416;-74
2023/10/24 07:27:32;;;;;;;25.10;22.45;;;11.70;99.90;;;;;;4992236;28;20042;-77
2023/10/24 07:29:59;;;;;;;23.70;20.75;;;11.70;99.90;;;;;;5002922;28;20200;-76
2023/10/24 07:32:26;;;;;;;22.50;20.60;;;11.70;99.90;;;;;;5007777;28;20045;-79
2023/10/24 07:34:56;;;;;;;23.13;20.83;;;11.60;99.90;;;;;;4999017;28;20052;-76
2023/10/24 07:37:24;;;;;;;21.08;19.00;;;11.70;99.90;;;;;;4998783;28;20042;-75
2023/10/24 07:39:51;;;;;;;22.40;20.00;;;11.80;99.90;;;;;;5003142;28;20034;-76
2023/10/24 07:42:18;;;;;;;21.55;19.48;;;11.80;99.90;;;;;;4995600;28;20045;-76
2023/10/24 07:44:45;;;;;;;21.15;18.98;;;11.80;99.90;;;;;;5000627;28;20038;-76
2023/10/24 07:47:12;;;;;;;21.15;19.15;;;11.80;99.90;;;;;;5002581;28;20034;-76
2023/10/24 07:49:39;;;;;;;20.10;18.50;;;11.90;99.90;;;;;;4998482;28;20453;-75
2023/10/24 07:52:08;;;;;;;21.27;19.17;;;11.90;99.90;;;;;;5004263;28;20033;-75
2023/10/24 07:54:35;;;;;;;21.10;19.40;;;11.90;99.90;;;;;;4997668;28;20571;-75
2023/10/24 07:57:02;;;;;;;20.90;19.00;;;11.90;99.90;;;;;;5001271;28;20965;-74
2023/10/24 07:59:32;;;;;;;20.45;18.45;;;11.90;99.90;;;;;;4995118;28;20044;-75
2023/10/24 08:01:59;;;;;;;20.92;19.13;;;12.00;99.90;;;;;;5001813;28;20480;-77
2023/10/24 08:04:26;;;;;;;20.38;18.42;;;12.00;99.90;;;;;;5005286;28;20060;-75
2023/10/24 08:06:54;;;;;;;27.00;24.48;;;12.00;99.90;;;;;;4991382;28;20104;-75
2023/10/24 08:09:21;;;;;;;22.38;20.67;;;12.00;99.90;;;;;;4994650;28;20050;-75
2023/10/24 08:11:48;;;;;;;21.95;19.92;;;12.00;99.90;;;;;;4996396;28;20124;-76
2023/10/24 08:14:15;;;;;;;20.85;19.05;;;12.00;99.90;;;;;;4994501;28;20042;-77
2023/10/24 08:16:42;;;;;;;22.58;20.50;;;12.10;99.90;;;;;;4994705;28;20049;-76
2023/10/24 08:19:09;;;;;;;21.92;19.90;;;12.10;99.90;;;;;;4998521;28;20488;-76
2023/10/24 08:21:36;;;;;;;22.75;20.75;;;12.20;99.90;;;;;;5010425;28;20150;-76
2023/10/24 08:24:03;;;;;;;23.13;21.10;;;12.20;99.90;;;;;;5024337;28;20042;-76
2023/10/24 08:26:30;;;;;;;24.15;21.95;;;12.30;99.90;;;;;;5023173;28;20699;-74
2023/10/24 08:28:57;;;;;;;24.83;22.70;;;12.40;99.90;;;;;;5003674;28;20046;-76
2023/10/24 08:31:24;;;;;;;26.77;24.30;;;12.50;99.90;;;;;;5004423;28;20055;-74
2023/10/24 08:33:52;;;;;;;27.45;25.10;;;12.50;99.90;;;;;;5000398;28;20129;-75
2023/10/24 08:36:19;;;;;;;26.33;24.02;;;12.60;99.90;;;;;;4999361;28;20038;-75
2023/10/24 08:38:45;;;;;;;27.27;25.02;;;12.60;99.90;;;;;;4996332;28;20068;-74
2023/10/24 08:41:12;;;;;;;25.30;23.23;;;12.50;99.90;;;;;;4996332;28;20034;-74
2023/10/24 08:43:40;;;;;;;25.92;23.27;;;12.40;99.90;;;;;;4995631;28;20164;-75
2023/10/24 08:46:08;;;;;;;24.58;22.58;;;12.50;99.90;;;;;;4996490;28;20054;-75
2023/10/24 08:48:35;;;;;;;23.40;21.40;;;12.50;99.90;;;;;;4998079;28;20084;-75
2023/10/24 08:51:02;;;;;;;24.80;22.70;;;12.60;99.90;;;;;;4993586;28;20041;-75
2023/10/24 08:53:30;;;;;;;23.85;21.92;;;12.60;99.90;;;;;;4999944;28;20696;-74
2023/10/24 08:55:58;;;;;;;31.58;28.67;;;12.70;99.90;;;;;;4996114;28;20038;-74
2023/10/24 08:58:28;;;;;;;24.85;22.70;;;12.70;99.90;;;;;;4997133;28;20055;-74
2023/10/24 09:00:55;;;;;;;24.73;22.40;;;12.70;99.90;;;;;;4994132;28;20083;-75
2023/10/24 09:03:23;;;;;;;23.17;21.38;;;12.70;99.90;;;;;;4999610;28;20081;-76
2023/10/24 09:05:52;;;;;;;23.00;21.17;;;12.70;99.90;;;;;;5002371;28;20042;-75
2023/10/24 09:08:19;;;;;;;25.55;23.52;;;12.70;99.90;;;;;;4999193;28;20088;-76
2023/10/24 09:10:46;;;;;;;26.50;23.25;;;12.80;99.90;;;;;;4990047;28;20045;-75
2023/10/24 09:13:13;;;;;;;24.70;22.58;;;12.80;99.90;;;;;;4997512;28;20359;-76
2023/10/24 09:15:40;;;;;;;28.33;25.58;;;12.70;99.90;;;;;;4999853;28;20133;-75
2023/10/24 09:18:07;;;;;;;25.73;23.45;;;12.70;99.90;;;;;;5003723;28;20044;-73
2023/10/24 09:20:35;;;;;;;28.65;26.33;;;12.80;99.90;;;;;;4984750;28;20844;-72
2023/10/24 09:23:09;;;;;;;25.63;23.45;;;12.80;99.90;;;;;;4988474;28;20251;-72
2023/10/24 09:25:37;;;;;;;24.52;22.52;;;12.70;99.90;;;;;;4992249;28;20054;-72
2023/10/24 09:28:17;;;;;;;28.17;26.00;;;12.70;99.90;;;;;;4989634;28;20161;-72
2023/10/24 09:30:44;;;;;;;24.83;22.92;;;12.70;99.90;;;;;;4991228;28;20157;-70
2023/10/24 09:33:11;;;;;;;25.65;22.67;;;12.70;99.90;;;;;;4998600;28;20041;-72
2023/10/24 09:35:39;;;;;;;24.77;21.25;;;12.70;99.90;;;;;;4989143;28;20057;-72
2023/10/24 09:38:07;;;;;;;22.17;20.63;;;12.60;99.90;;;;;;4993010;28;20529;-72
2023/10/24 09:40:36;;;;;;;22.33;20.48;;;12.70;99.90;;;;;;4995225;28;20129;-72
2023/10/24 09:43:34;;;;;;;21.95;20.35;;;12.70;99.90;;;;;;4989107;28;20042;-72
2023/10/24 09:46:02;;;;;;;24.42;22.63;;;12.70;99.90;;;;;;4996042;28;20053;-72
2023/10/24 09:48:29;;;;;;;31.40;28.90;;;12.70;99.90;;;;;;4995218;28;20415;-72
2023/10/24 09:50:57;;;;;;;25.83;23.83;;;12.70;99.90;;;;;;4996866;28;20106;-72
2023/10/24 09:53:24;;;;;;;29.30;26.83;;;12.80;99.90;;;;;;4996428;28;20050;-72
2023/10/24 09:55:51;;;;;;;24.60;22.70;;;12.80;99.90;;;;;;4989642;28;20573;-72
2023/10/24 09:58:22;;;;;;;25.83;23.65;;;12.80;99.90;;;;;;4990633;28;20104;-73
2023/10/24 10:00:50;;;;;;;22.63;21.13;;;12.70;99.90;;;;;;4991853;28;20041;-71
2023/10/24 10:03:17;;;;;;;22.77;20.80;;;12.80;99.90;;;;;;4999108;28;20037;-72
2023/10/24 10:05:48;;;;;;;22.65;20.67;;;12.80;99.90;;;;;;4996167;28;20059;-73
2023/10/24 10:08:18;;;;;;;23.20;21.27;;;12.80;99.90;;;;;;4988328;28;20123;-72
2023/10/24 10:10:46;;;;;;;21.73;20.05;;;12.90;99.90;;;;;;4992205;28;22483;-72
2023/10/24 10:13:16;;;;;;;20.77;19.40;;;12.90;99.90;;;;;;5005798;28;20120;-72
2023/10/24 10:15:58;;;;;;;21.70;19.98;;;13.00;99.90;;;;;;4996806;28;20346;-72
2023/10/24 10:18:57;;;;;;;21.60;20.20;;;12.90;99.90;;;;;;4996886;28;20156;-70
2023/10/24 10:21:38;;;;;;;20.27;18.88;;;12.90;99.90;;;;;;4983681;28;20056;-70
2023/10/24 10:24:23;;;;;;;21.65;20.17;;;13.00;99.90;;;;;;4985018;28;20675;-72
2023/10/24 10:26:59;;;;;;;21.90;19.85;;;13.00;99.90;;;;;;4993460;28;20049;-71
2023/10/24 10:29:32;;;;;;;23.77;21.92;;;13.00;99.90;;;;;;4999821;28;20160;-71
2023/10/24 10:32:14;;;;;;;25.23;23.05;;;13.00;99.90;;;;;;4988618;28;20089;-72
2023/10/24 10:35:01;;;;;;;23.50;21.63;;;13.10;99.90;;;;;;4989789;28;20081;-73
2023/10/24 10:37:33;;;;;;;21.00;19.73;;;13.10;99.90;;;;;;4992649;28;20041;-72
2023/10/24 10:40:15;;;;;;;22.05;20.45;;;13.20;99.90;;;;;;4994047;28;20100;-73
2023/10/24 10:42:49;;;;;;;20.67;19.17;;;13.10;99.90;;;;;;4987148;28;20048;-72
2023/10/24 10:45:24;;;;;;;20.77;19.35;;;13.10;99.90;;;;;;4996858;28;20054;-73
2023/10/24 10:47:52;;;;;;;20.77;19.30;;;13.10;99.90;;;;;;4990770;28;20050;-73
2023/10/24 10:50:26;;;;;;;21.50;19.90;;;13.10;99.90;;;;;;4996597;28;20041;-72
2023/10/24 10:53:24;;;;;;;28.20;26.00;;;13.10;99.90;;;;;;4989742;28;20057;-72
2023/10/24 10:56:06;;;;;;;22.00;20.50;;;13.20;99.90;;;;;;4995458;28;20092;-74
2023/10/24 10:58:42;;;;;;;20.77;19.20;;;13.20;99.90;;;;;;4986321;28;20056;-74
2023/10/24 11:01:21;;;;;;;20.20;19.10;;;13.20;99.90;;;;;;4992215;28;20375;-73
2023/10/24 11:03:49;;;;;;;20.38;18.98;;;13.10;99.90;;;;;;4990173;28;20123;-74
2023/10/24 11:06:17;;;;;;;21.83;20.42;;;13.10;99.90;;;;;;4993466;28;20037;-74
2023/10/24 11:09:05;;;;;;;21.20;19.65;;;13.10;99.90;;;;;;4992067;28;20038;-74
2023/10/24 11:11:32;;;;;;;20.27;18.98;;;13.20;99.90;;;;;;4988012;28;20038;-74
2023/10/24 11:14:20;;;;;;;20.30;18.90;;;13.10;99.90;;;;;;4995100;28;20630;-73
2023/10/24 11:16:48;;;;;;;21.92;20.33;;;13.00;99.90;;;;;;4997329;28;20056;-73
2023/10/24 11:19:20;;;;;;;19.63;18.45;;;13.10;99.90;;;;;;5013097;28;20582;-73
2023/10/24 11:21:49;;;;;;;20.33;19.05;;;13.10;99.90;;;;;;5002583;28;20045;-73
2023/10/24 11:24:20;;;;;;;20.98;19.67;;;13.10;99.90;;;;;;4987557;28;20465;-73
2023/10/24 11:26:47;;;;;;;19.98;18.88;;;13.10;99.90;;;;;;4999135;28;20054;-73
2023/10/24 11:29:15;;;;;;;20.05;18.90;;;13.10;99.90;;;;;;4996537;28;20054;-73
2023/10/24 11:31:43;;;;;;;20.85;19.58;;;13.10;99.90;;;;;;4990681;28;20759;-74
2023/10/24 11:34:15;;;;;;;19.95;18.75;;;13.10;99.90;;;;;;4986013;28;20065;-74
2023/10/24 11:36:43;;;;;;;20.05;18.75;;;13.20;99.90;;;;;;4999106;28;20124;-74
2023/10/24 11:39:14;;;;;;;20.52;19.33;;;13.20;99.90;;;;;;4994191;28;20046;-73
2023/10/24 11:41:43;;;;;;;19.67;18.40;;;13.20;99.90;;;;;;4987762;28;20077;-74
2023/10/24 11:44:15;;;;;;;21.55;20.15;;;13.20;99.90;;;;;;4991328;28;20038;-73
2023/10/24 11:46:43;;;;;;;22.00;20.60;;;13.20;99.90;;;;;;4994502;28;20072;-74
2023/10/24 11:49:13;;;;;;;21.40;19.88;;;13.20;99.90;;;;;;4994516;28;20048;-73
2023/10/24 11:51:40;;;;;;;21.35;19.95;;;13.20;99.90;;;;;;5022975;28;20100;-73
2023/10/24 11:54:08;;;;;;;21.55;19.70;;;13.20;99.90;;;;;;4993608;28;20146;-73
2023/10/24 11:56:35;;;;;;;25.02;23.00;;;13.20;99.90;;;;;;4991042;28;20168;-73
2023/10/24 11:59:03;;;;;;;30.55;27.73;;;13.10;99.90;;;;;;4996100;28;20037;-72
2023/10/24 12:01:33;;;;;;;24.25;22.35;;;13.10;99.90;;;;;;4991895;28;20297;-72
2023/10/24 12:04:03;;;;;;;22.52;20.65;;;13.10;99.90;;;;;;5000159;28;20042;-72
2023/10/24 12:06:31;;;;;;;19.55;18.23;;;13.10;99.90;;;;;;4999523;28;20528;-73
2023/10/24 12:08:59;;;;;;;19.20;17.92;;;13.00;99.90;;;;;;4993039;28;20522;-72
2023/10/24 12:11:26;;;;;;;23.40;21.70;;;13.00;99.90;;;;;;4990788;28;20656;-72
2023/10/24 12:13:53;;;;;;;26.48;24.25;;;13.10;99.90;;;;;;4999976;28;20045;-72
2023/10/24 12:16:20;;;;;;;25.10;23.30;;;13.10;99.90;;;;;;4994296;28;20037;-72
2023/10/24 12:18:47;;;;;;;20.27;18.63;;;13.10;99.90;;;;;;4997889;28;20488;-73
2023/10/24 12:21:14;;;;;;;19.75;18.35;;;13.00;99.90;;;;;;5024887;28;20810;-73
2023/10/24 12:23:41;;;;;;;21.20;19.80;;;13.00;99.90;;;;;;4995526;28;20072;-73
2023/10/24 12:26:08;;;;;;;22.75;21.08;;;13.00;99.90;;;;;;4990394;28;20046;-73
2023/10/24 12:28:36;;;;;;;20.77;19.30;;;12.90;99.90;;;;;;4993447;28;20623;-73
2023/10/24 12:31:04;;;;;;;22.42;20.58;;;12.90;99.90;;;;;;4996153;28;20049;-73
2023/10/24 12:33:32;;;;;;;23.20;21.35;;;12.90;99.90;;;;;;4995046;28;20047;-73
2023/10/24 12:35:59;;;;;;;19.65;18.15;;;12.80;99.90;;;;;;4993780;28;20732;-73